createdAt,value
2018-04-23T00:02:03.741Z,18.90
2018-04-23T00:05:56.938Z,18.80
2018-04-23T00:09:50.131Z,18.70
2018-04-23T00:13:43.269Z,18.10
2018-04-23T00:17:36.401Z,17.70
2018-04-23T00:21:29.504Z,17.40
2018-04-23T00:25:22.640Z,17.40
2018-04-23T00:29:15.801Z,17.40
2018-04-23T00:33:09.023Z,17.10
2018-04-23T00:37:02.125Z,17.10
2018-04-23T00:40:55.243Z,17.10
2018-04-23T00:44:48.365Z,17.10
2018-04-23T00:48:41.525Z,17.30
2018-04-23T00:52:34.624Z,17.40
2018-04-23T00:56:27.766Z,17.50
2018-04-23T01:00:20.917Z,17.40
2018-04-23T01:04:14.070Z,17.40
2018-04-23T01:08:07.186Z,17.30
2018-04-23T01:12:00.331Z,17.30
2018-04-23T01:15:53.485Z,17.10
2018-04-23T01:19:46.606Z,17.10
2018-04-23T01:23:40.519Z,17.00
2018-04-23T01:27:33.648Z,16.90
2018-04-23T01:31:26.809Z,17.00
2018-04-23T01:35:20.699Z,16.80
2018-04-23T01:39:13.891Z,16.80
2018-04-23T01:43:06.979Z,16.80
2018-04-23T01:47:00.151Z,16.80
2018-04-23T01:50:53.283Z,16.80
2018-04-23T01:54:46.407Z,16.90
2018-04-23T01:58:40.334Z,16.70
2018-04-23T02:02:33.492Z,16.70
2018-04-23T02:06:28.344Z,16.50
2018-04-23T02:10:21.528Z,16.50
2018-04-23T02:14:15.476Z,16.60
2018-04-23T02:18:08.620Z,16.50
2018-04-23T02:22:01.779Z,16.70
2018-04-23T02:25:54.913Z,16.60
2018-04-23T02:29:48.788Z,16.60
2018-04-23T03:09:16.749Z,16.70
2018-04-23T03:13:11.085Z,16.90
2018-04-23T03:17:04.976Z,17.00
2018-04-23T03:20:58.885Z,17.00
2018-04-23T03:24:52.035Z,17.00
2018-04-23T03:28:45.322Z,16.80
2018-04-23T03:32:38.453Z,16.80
2018-04-23T03:36:32.683Z,16.80
2018-04-23T03:40:25.885Z,16.80
2018-04-23T03:44:19.102Z,16.60
2018-04-23T03:48:12.235Z,16.70
2018-04-23T03:52:05.457Z,16.80
2018-04-23T03:55:58.980Z,16.70
2018-04-23T03:59:52.192Z,16.60
2018-04-23T04:03:45.927Z,16.60
2018-04-23T04:07:39.072Z,16.70
2018-04-23T04:11:33.055Z,16.60
2018-04-23T04:15:37.970Z,16.30
2018-04-23T04:19:31.195Z,16.30
2018-04-23T04:23:25.090Z,16.40
2018-04-23T04:27:18.217Z,16.40
2018-04-23T04:31:12.985Z,16.40
2018-04-23T04:35:06.254Z,16.40
2018-04-23T04:39:00.144Z,16.40
2018-04-23T04:42:53.335Z,16.40
2018-04-23T04:46:46.465Z,16.30
2018-04-23T04:50:39.572Z,16.40
2018-04-23T04:54:32.920Z,16.30
2018-04-23T04:58:26.164Z,16.30
2018-04-23T05:02:19.371Z,16.40
2018-04-23T05:06:12.572Z,16.40
2018-04-23T05:10:05.771Z,16.50
2018-04-23T05:13:58.913Z,16.40
2018-04-23T05:17:53.019Z,16.50
2018-04-23T05:21:46.193Z,16.40
2018-04-23T05:25:39.434Z,16.50
2018-04-23T05:29:32.567Z,16.60
2018-04-23T05:33:25.701Z,16.60
2018-04-23T05:37:18.900Z,16.80
2018-04-23T05:41:12.004Z,16.80
2018-04-23T05:45:05.212Z,16.90
2018-04-23T05:48:58.331Z,16.90
2018-04-23T05:52:51.685Z,17.00
2018-04-23T05:56:44.797Z,17.10
2018-04-23T06:00:37.988Z,17.10
2018-04-23T06:04:31.104Z,17.10
2018-04-23T06:08:24.341Z,17.10
2018-04-23T06:12:18.251Z,17.20
2018-04-23T06:16:11.473Z,17.10
2018-04-23T06:20:04.665Z,17.10
2018-04-23T06:23:58.641Z,17.00
2018-04-23T06:27:53.560Z,17.00
2018-04-23T06:31:46.820Z,17.00
2018-04-23T06:35:40.169Z,17.00
2018-04-23T06:39:33.384Z,17.00
2018-04-23T06:43:26.755Z,17.20
2018-04-23T06:47:19.879Z,17.20
2018-04-23T06:51:13.762Z,17.30
2018-04-23T06:55:07.662Z,17.30
2018-04-23T06:59:00.909Z,17.20
2018-04-23T07:02:55.764Z,17.10
2018-04-23T07:06:48.864Z,17.10
2018-04-23T07:10:42.025Z,17.20
2018-04-23T07:14:35.289Z,17.20
2018-04-23T07:18:28.633Z,17.20
2018-04-23T07:22:21.756Z,17.20
2018-04-23T07:26:15.635Z,17.30
2018-04-23T07:30:08.779Z,17.30
2018-04-23T07:34:02.726Z,17.90
2018-04-23T07:37:57.304Z,18.10
2018-04-23T07:41:50.517Z,18.10
2018-04-23T07:45:43.668Z,18.20
2018-04-23T07:49:36.858Z,18.40
2018-04-23T07:53:30.132Z,18.20
2018-04-23T07:57:23.373Z,18.10
2018-04-23T08:01:16.493Z,18.00
2018-04-23T08:05:09.615Z,17.90
2018-04-23T08:09:03.508Z,18.20
2018-04-23T08:12:57.440Z,18.30
2018-04-23T08:16:50.624Z,18.30
2018-04-23T08:20:43.871Z,18.20
2018-04-23T08:24:37.059Z,18.00
2018-04-23T08:28:30.240Z,17.70
2018-04-23T08:32:23.487Z,17.60
2018-04-23T08:36:16.621Z,17.60
2018-04-23T08:40:09.761Z,17.60
2018-04-23T08:44:03.966Z,17.80
2018-04-23T08:47:57.232Z,17.80
2018-04-23T08:51:51.068Z,17.90
2018-04-23T08:55:44.568Z,17.90
2018-04-23T08:59:37.809Z,18.00
2018-04-23T09:03:30.959Z,18.20
2018-04-23T09:07:24.061Z,18.30
2018-04-23T09:11:17.951Z,18.50
2018-04-23T09:15:11.078Z,18.50
2018-04-23T09:19:04.340Z,18.50
2018-04-23T09:22:57.476Z,18.80
2018-04-23T09:26:50.651Z,19.00
2018-04-23T09:30:43.809Z,18.90
2018-04-23T09:34:37.712Z,18.80
2018-04-23T09:38:30.910Z,18.80
2018-04-23T09:42:24.913Z,18.60
2018-04-23T09:46:18.093Z,18.60
2018-04-23T09:50:11.220Z,18.50
2018-04-23T09:54:04.384Z,18.80
2018-04-23T09:57:57.549Z,18.70
2018-04-23T10:01:51.288Z,18.60
2018-04-23T10:05:44.436Z,18.90
2018-04-23T10:09:37.583Z,19.10
2018-04-23T10:13:30.741Z,19.10
2018-04-23T10:17:23.896Z,19.00
2018-04-23T10:21:18.185Z,19.10
2018-04-23T10:25:15.335Z,19.30
2018-04-23T10:29:09.066Z,19.30
2018-04-23T10:33:02.224Z,19.60
2018-04-23T10:36:55.353Z,19.80
2018-04-23T10:40:50.413Z,19.40
2018-04-23T10:44:43.708Z,19.30
2018-04-23T10:48:36.877Z,19.10
2018-04-23T10:52:30.102Z,18.90
2018-04-23T10:56:23.476Z,18.80
2018-04-23T11:00:17.521Z,18.80
2018-04-23T11:04:10.978Z,19.00
2018-04-23T11:08:04.255Z,19.00
2018-04-23T11:11:58.198Z,18.80
2018-04-23T11:15:51.400Z,18.70
2018-04-23T11:19:44.487Z,19.00
2018-04-23T11:23:37.667Z,19.20
2018-04-23T11:27:30.843Z,19.60
2018-04-23T11:31:23.977Z,19.70
2018-04-23T11:35:17.434Z,20.00
2018-04-23T11:39:11.336Z,20.00
2018-04-23T11:43:04.508Z,20.00
2018-04-23T11:46:57.693Z,20.20
2018-04-23T11:50:51.089Z,20.20
2018-04-23T11:54:44.209Z,20.10
2018-04-23T11:58:37.387Z,20.00
2018-04-23T12:02:30.507Z,20.20
2018-04-23T12:06:23.667Z,20.50
2018-04-23T12:10:16.821Z,20.80
2018-04-23T12:14:09.950Z,21.10
2018-04-23T12:18:03.090Z,21.00
2018-04-23T12:21:56.202Z,21.10
2018-04-23T12:25:49.345Z,21.30
2018-04-23T12:29:42.640Z,21.10
2018-04-23T12:33:35.799Z,20.90
2018-04-23T12:37:28.887Z,20.70
2018-04-23T12:41:22.146Z,20.50
2018-04-23T12:45:15.288Z,20.60
2018-04-23T12:49:08.451Z,20.80
2018-04-23T12:53:01.607Z,20.60
2018-04-23T12:56:54.784Z,20.30
2018-04-23T13:00:47.350Z,20.20
2018-04-23T13:04:40.473Z,20.50
2018-04-23T13:08:33.677Z,20.60
2018-04-23T13:12:26.808Z,20.60
2018-04-23T13:16:20.049Z,20.30
2018-04-23T13:20:13.101Z,20.40
2018-04-23T13:24:06.659Z,20.60
2018-04-23T13:28:00.661Z,21.00
2018-04-23T13:31:54.555Z,20.90
2018-04-23T13:35:47.660Z,20.90
2018-04-23T13:39:40.869Z,20.80
2018-04-23T13:43:34.814Z,20.60
2018-04-23T13:47:28.582Z,20.60
2018-04-23T13:51:21.706Z,20.60
2018-04-23T13:55:14.851Z,20.60
2018-04-23T13:59:08.763Z,20.80
2018-04-23T14:03:01.901Z,20.80
2018-04-23T14:06:55.285Z,21.00
2018-04-23T14:10:48.343Z,21.00
2018-04-23T14:14:41.495Z,20.90
2018-04-23T14:18:35.381Z,21.40
2018-04-23T14:22:29.324Z,21.60
2018-04-23T14:26:22.507Z,21.60
2018-04-23T14:30:15.686Z,21.80
2018-04-23T14:34:09.585Z,21.60
2018-04-23T14:38:02.710Z,21.60
2018-04-23T14:41:55.893Z,21.60
2018-04-23T14:45:49.032Z,21.60
2018-04-23T14:49:42.143Z,21.40
2018-04-23T14:53:35.288Z,21.40
2018-04-23T14:57:29.215Z,21.30
2018-04-23T15:01:22.341Z,21.30
2018-04-23T15:05:16.274Z,21.10
2018-04-23T15:09:09.480Z,21.10
2018-04-23T15:13:03.441Z,21.00
2018-04-23T15:16:56.565Z,21.00
2018-04-23T15:20:49.716Z,20.90
2018-04-23T15:24:43.691Z,20.70
2018-04-23T15:28:37.600Z,20.60
2018-04-23T15:32:30.699Z,20.60
2018-04-23T15:36:24.643Z,21.00
2018-04-23T15:40:17.933Z,21.00
2018-04-23T15:44:11.164Z,21.10
2018-04-23T15:48:04.320Z,21.00
2018-04-23T15:51:57.477Z,20.90
2018-04-23T15:55:51.391Z,20.70
2018-04-23T15:59:44.568Z,20.60
2018-04-23T16:03:37.748Z,20.60
2018-04-23T16:07:30.917Z,20.50
2018-04-23T16:11:24.177Z,20.40
2018-04-23T16:15:17.291Z,20.30
2018-04-23T16:19:10.394Z,20.20
2018-04-23T16:23:03.579Z,20.20
2018-04-23T16:26:57.231Z,20.10
2018-04-23T16:30:50.349Z,19.90
2018-04-23T16:34:44.259Z,19.60
2018-04-23T16:38:37.399Z,19.50
2018-04-23T16:42:31.292Z,19.80
2018-04-23T16:46:25.246Z,19.80
2018-04-23T16:50:18.380Z,20.00
2018-04-23T16:54:11.532Z,20.00
2018-04-23T16:58:04.714Z,19.90
2018-04-23T17:01:57.808Z,19.80
2018-04-23T17:05:50.984Z,19.70
2018-04-23T17:09:44.972Z,19.30
2018-04-23T17:13:38.124Z,19.20
2018-04-23T17:17:31.315Z,19.10
2018-04-23T17:21:24.498Z,18.90
2018-04-23T17:25:17.657Z,18.90
2018-04-23T17:29:10.850Z,18.80
2018-04-23T17:33:03.971Z,18.60
2018-04-23T17:36:57.851Z,18.40
2018-04-23T17:40:51.748Z,18.30
2018-04-23T17:44:44.885Z,18.30
2018-04-23T17:48:38.959Z,18.10
2018-04-23T17:52:32.139Z,18.20
2018-04-23T17:56:25.346Z,18.00
2018-04-23T18:00:18.487Z,17.90
2018-04-23T18:04:11.637Z,17.80
2018-04-23T18:08:04.917Z,17.70
2018-04-23T18:11:59.061Z,17.40
2018-04-23T18:15:52.197Z,17.40
2018-04-23T18:19:45.312Z,17.20
2018-04-23T18:23:38.427Z,17.20
2018-04-23T18:27:31.596Z,16.90
2018-04-23T18:31:24.826Z,16.80
2018-04-23T18:35:18.031Z,16.80
2018-04-23T18:39:11.207Z,16.60
2018-04-23T18:43:04.372Z,16.40
2018-04-23T18:46:58.360Z,16.10
2018-04-23T18:50:51.556Z,16.10
2018-04-23T18:54:45.596Z,16.00
2018-04-23T18:58:38.760Z,16.00
2018-04-23T19:02:31.750Z,15.80
2018-04-23T19:06:25.671Z,15.80
2018-04-23T19:10:19.587Z,15.60
2018-04-23T19:14:12.760Z,15.50
2018-04-23T19:18:06.445Z,15.50
2018-04-23T19:21:59.650Z,15.40
2018-04-23T19:25:52.810Z,15.30
2018-04-23T19:29:46.020Z,15.30
2018-04-23T19:33:39.129Z,15.20
2018-04-23T19:37:32.346Z,15.10
2018-04-23T19:41:25.529Z,15.10
2018-04-23T19:45:18.661Z,15.00
2018-04-23T19:49:11.851Z,14.90
2018-04-23T19:53:04.999Z,14.90
2018-04-23T19:56:58.171Z,14.80
2018-04-23T20:00:51.390Z,14.80
2018-04-23T20:04:44.508Z,14.80
2018-04-23T20:08:37.638Z,14.70
2018-04-23T20:12:31.489Z,14.60
2018-04-23T20:16:24.611Z,14.60
2018-04-23T20:20:17.800Z,14.60
2018-04-23T20:24:10.915Z,14.50
2018-04-23T20:28:04.025Z,14.50
2018-04-23T20:31:57.215Z,14.40
2018-04-23T20:35:50.461Z,14.40
2018-04-23T20:39:43.741Z,14.30
2018-04-23T20:43:36.889Z,14.20
2018-04-23T20:47:30.141Z,14.20
2018-04-23T20:51:23.286Z,14.10
2018-04-23T20:55:16.384Z,14.10
2018-04-23T20:59:09.576Z,14.10
2018-04-23T21:03:02.698Z,14.00
2018-04-23T21:06:55.855Z,13.90
2018-04-23T21:10:49.206Z,13.80
2018-04-23T21:14:42.292Z,13.80
2018-04-23T21:18:35.447Z,13.90
2018-04-23T21:22:28.641Z,13.70
2018-04-23T21:26:21.685Z,13.70
2018-04-23T21:30:14.849Z,13.60
2018-04-23T21:34:08.008Z,13.80
2018-04-23T21:38:01.169Z,13.60
2018-04-23T21:41:54.272Z,13.50
2018-04-23T21:45:47.470Z,13.50
2018-04-23T21:49:40.626Z,13.50
2018-04-23T21:53:33.747Z,13.40
2018-04-23T21:57:26.863Z,13.80
2018-04-23T22:01:20.028Z,13.90
2018-04-23T22:05:14.001Z,13.70
2018-04-23T22:09:07.051Z,13.70
2018-04-23T22:13:00.222Z,13.80
2018-04-23T22:16:53.336Z,13.60
2018-04-23T22:20:46.500Z,13.50
2018-04-23T22:24:39.693Z,13.20
2018-04-23T22:28:32.788Z,13.20
2018-04-23T22:32:26.720Z,13.00
2018-04-23T22:36:19.803Z,12.90
2018-04-23T22:40:12.988Z,12.90
2018-04-23T22:44:06.091Z,13.00
2018-04-23T22:47:59.197Z,12.80
2018-04-23T22:51:52.358Z,12.90
2018-04-23T22:55:45.550Z,13.20
2018-04-23T22:59:38.693Z,13.30
2018-04-23T23:03:31.821Z,13.30
2018-04-23T23:07:24.954Z,13.30
2018-04-23T23:11:18.127Z,13.10
2018-04-23T23:15:12.003Z,13.10
2018-04-23T23:19:05.924Z,13.10
2018-04-23T23:22:59.059Z,13.10
2018-04-23T23:26:52.184Z,13.00
2018-04-23T23:30:45.881Z,12.90
2018-04-23T23:34:38.996Z,12.80
2018-04-23T23:38:32.143Z,12.80
2018-04-23T23:42:25.268Z,12.70
2018-04-23T23:46:18.393Z,12.80
2018-04-23T23:50:11.538Z,12.70
2018-04-23T23:54:04.661Z,12.70
2018-04-23T23:57:57.783Z,12.70
